Time;durP1;ratioP1;P1;durP2;ratioP2;P2;SDS_P1;SDS_P2;PMS_P1;PMS_P2;Temp;Humidity;BMP_temperature;BMP_pressure;BME280_temperature;BME280_humidity;BME280_pressure;Samples;Min_cycle;Max_cycle;Signal;HPM_P1;HPM_P2
2021/09/26 00:00:29;;;;;;;;;;;;;;;22.34;48.32;95873.22;1043167;28;2091;-60
2021/09/26 00:01:00;;;;;;;;;;;;;;;22.33;48.07;95877.72;1043335;28;2235;-59
2021/09/26 00:01:31;;;;;;;;;;;;;;;22.32;48.37;95870.84;1044335;28;1258;-60
2021/09/26 00:02:01;;;;;;;;;;;;;;;22.32;48.19;95873.50;1043668;28;2011;-59
2021/09/26 00:02:31;;;;;;;;;;;;;;;22.33;48.32;95872.44;1043957;28;1139;-59
2021/09/26 00:03:02;;;;;;;;;;;;;;;22.33;48.50;95874.28;1043668;28;1056;-60
2021/09/26 00:03:32;;;;;;;;;;;;;;;22.33;48.47;95884.84;1044803;28;729;-58
2021/09/26 00:04:03;;;;;;;;;;;;;;;22.33;48.31;95880.34;1044355;28;1071;-59
2021/09/26 00:04:34;;;;;;;;;;;;;;;22.33;48.33;95883.00;1043966;28;1205;-59
2021/09/26 00:05:04;;;;;;;;;;;;;;;22.31;48.24;95879.84;1044578;28;982;-59
2021/09/26 00:05:34;;;;;;;;;;;;;;;22.32;48.23;95881.41;1044632;28;1370;-57
2021/09/26 00:06:05;;;;;;;;;;;;;;;22.32;48.33;95878.78;1045670;28;2179;-59
2021/09/26 00:06:35;;;;;;;;;;;;;;;22.32;48.15;95884.06;1047889;28;1220;-60
2021/09/26 00:07:07;;;;;;;;;;;;;;;22.34;48.36;95878.50;1048498;28;1097;-59
2021/09/26 00:07:37;;;;;;;;;;;;;;;22.33;48.20;95877.72;1047829;28;1114;-60
2021/09/26 00:08:08;;;;;;;;;;;;;;;22.33;48.50;95874.28;1048299;28;1124;-58
2021/09/26 00:08:38;;;;;;;;;;;;;;;22.33;48.09;95880.34;1048410;28;816;-60
2021/09/26 00:09:08;;;;;;;;;;;;;;;22.34;48.16;95878.50;1048397;28;1085;-59
2021/09/26 00:09:39;;;;;;;;;;;;;;;22.34;48.44;95879.28;1048543;28;1246;-57
2021/09/26 00:10:10;;;;;;;;;;;;;;;22.34;48.29;95878.50;1043754;28;1351;-60
2021/09/26 00:10:40;;;;;;;;;;;;;;;22.34;48.30;95875.88;1044426;28;1391;-59
2021/09/26 00:11:10;;;;;;;;;;;;;;;22.34;48.23;95878.50;1043518;28;2122;-59
2021/09/26 00:11:41;;;;;;;;;;;;;;;22.32;48.40;95881.41;1044486;28;1064;-60
2021/09/26 00:12:11;;;;;;;;;;;;;;;22.34;48.31;95878.50;1039883;28;2503;-59
2021/09/26 00:12:42;;;;;;;;;;;;;;;22.33;48.23;95880.34;1047693;28;1233;-58
2021/09/26 00:13:12;;;;;;;;;;;;;;;22.34;48.14;95884.56;1048479;28;1115;-58
2021/09/26 00:13:43;;;;;;;;;;;;;;;22.34;48.25;95879.28;1048177;28;1129;-59
2021/09/26 00:14:13;;;;;;;;;;;;;;;22.33;48.36;95880.34;1043119;28;1947;-60
2021/09/26 00:14:43;;;;;;;;;;;;;;;22.34;48.50;95879.28;1044481;28;1029;-59
2021/09/26 00:15:15;;;;;;;;;;;;;;;22.34;48.45;95881.91;1044664;28;1135;-57
2021/09/26 00:15:45;;;;;;;;;;;;;;;22.34;48.27;95879.28;1044731;28;1021;-59
2021/09/26 00:16:16;;;;;;;;;;;;;;;22.34;48.51;95879.28;1043418;28;2064;-60
2021/09/26 00:16:46;;;;;;;;;;;;;;;22.34;48.31;95875.88;1044664;28;1029;-58
2021/09/26 00:17:16;;;;;;;;;;;;;;;22.33;48.28;95877.72;1044701;28;1242;-58
2021/09/26 00:17:47;;;;;;;;;;;;;;;22.33;48.30;95877.72;1050948;28;1189;-60
2021/09/26 00:18:17;;;;;;;;;;;;;;;22.35;48.39;95880.06;1052516;28;1593;-60
2021/09/26 00:18:48;;;;;;;;;;;;;;;22.34;48.22;95879.28;1052570;28;1025;-59
2021/09/26 00:19:18;;;;;;;;;;;;;;;22.34;48.23;95879.28;1052492;28;1126;-59
2021/09/26 00:19:48;;;;;;;;;;;;;;;22.34;48.22;95878.50;1044516;28;1242;-56
2021/09/26 00:20:19;;;;;;;;;;;;;;;22.35;48.45;95874.78;1044585;28;1198;-59
2021/09/26 00:20:49;;;;;;;;;;;;;;;22.35;48.29;95872.16;1044603;28;1213;-60
2021/09/26 00:21:19;;;;;;;;;;;;;;;22.34;48.30;95871.34;1043611;28;1912;-59
2021/09/26 00:21:50;;;;;;;;;;;;;;;22.35;48.41;95866.88;1042183;28;1913;-60
2021/09/26 00:22:20;;;;;;;;;;;;;;;22.36;48.15;95871.84;1044343;28;1158;-60
2021/09/26 00:22:50;;;;;;;;;;;;;;;22.35;48.50;95870.31;1043899;28;1414;-59
2021/09/26 00:23:21;;;;;;;;;;;;;;;22.35;47.99;95872.94;1044606;28;1139;-60
2021/09/26 00:23:53;;;;;;;;;;;;;;;22.35;48.13;95875.59;1047020;28;2301;-59
2021/09/26 00:24:24;;;;;;;;;;;;;;;22.35;48.29;95878.22;1047526;28;2149;-57
2021/09/26 00:24:54;;;;;;;;;;;;;;;22.35;48.42;95874.78;1048211;28;1076;-59
2021/09/26 00:25:24;;;;;;;;;;;;;;;22.35;48.45;95878.22;1048093;28;1191;-58
2021/09/26 00:25:55;;;;;;;;;;;;;;;22.35;48.19;95878.22;1044565;28;1218;-59
2021/09/26 00:26:25;;;;;;;;;;;;;;;22.35;48.17;95877.44;1043498;28;2100;-60
2021/09/26 00:26:55;;;;;;;;;;;;;;;22.35;48.36;95880.06;1044312;28;1011;-60
2021/09/26 00:27:26;;;;;;;;;;;;;;;22.35;48.46;95888.78;1044545;28;1178;-60
2021/09/26 00:27:56;;;;;;;;;;;;;;;22.35;48.21;95891.44;1044163;28;993;-59
2021/09/26 00:28:26;;;;;;;;;;;;;;;22.35;48.30;95893.28;1044329;28;1672;-58
2021/09/26 00:28:56;;;;;;;;;;;;;;;22.35;48.23;95885.34;1044214;28;1154;-58
2021/09/26 00:29:27;;;;;;;;;;;;;;;22.35;48.16;95890.63;1044654;28;1211;-59
2021/09/26 00:29:57;;;;;;;;;;;;;;;22.35;48.07;95895.91;1044464;28;1148;-59
2021/09/26 00:30:28;;;;;;;;;;;;;;;22.35;48.26;95893.28;1044594;28;1155;-59
2021/09/26 00:30:58;;;;;;;;;;;;;;;22.35;48.42;95894.06;1044555;28;1044;-58
2021/09/26 00:31:28;;;;;;;;;;;;;;;22.36;48.45;95900.16;1043223;28;1815;-59
2021/09/26 00:31:58;;;;;;;;;;;;;;;22.35;48.21;95894.06;1044090;28;1391;-59
2021/09/26 00:32:29;;;;;;;;;;;;;;;22.36;48.40;95895.63;1044012;28;1159;-58
2021/09/26 00:32:59;;;;;;;;;;;;;;;22.35;48.19;95894.06;1042686;28;1100;-60
2021/09/26 00:33:30;;;;;;;;;;;;;;;22.36;48.30;95898.28;1044313;28;1215;-58
2021/09/26 00:34:00;;;;;;;;;;;;;;;22.34;48.31;95895.13;1047312;28;1541;-60
2021/09/26 00:34:30;;;;;;;;;;;;;;;22.35;48.55;95890.63;1047927;28;784;-59
2021/09/26 00:35:01;;;;;;;;;;;;;;;22.35;48.53;95896.72;1048185;28;1059;-59
2021/09/26 00:35:31;;;;;;;;;;;;;;;22.35;48.42;95895.91;1043027;28;1595;-59
2021/09/26 00:36:02;;;;;;;;;;;;;;;22.35;48.35;95902.00;1044109;28;1359;-59
2021/09/26 00:36:32;;;;;;;;;;;;;;;22.34;48.46;95895.13;1042915;28;2067;-60
2021/09/26 00:37:03;;;;;;;;;;;;;;;22.36;48.62;95897.50;1043934;28;1341;-60
2021/09/26 00:37:34;;;;;;;;;;;;;;;22.36;48.40;95898.28;1047941;28;1356;-59
2021/09/26 00:38:04;;;;;;;;;;;;;;;22.35;48.26;95891.44;1044308;28;1040;-58
2021/09/26 00:38:35;;;;;;;;;;;;;;;22.36;48.38;95900.91;1044695;28;1294;-59
2021/09/26 00:39:05;;;;;;;;;;;;;;;22.36;48.23;95898.28;1044253;28;1185;-58
2021/09/26 00:39:35;;;;;;;;;;;;;;;22.36;48.47;95892.97;1044768;28;1014;-60
2021/09/26 00:40:06;;;;;;;;;;;;;;;22.36;48.23;95897.50;1044326;28;1028;-60
2021/09/26 00:40:36;;;;;;;;;;;;;;;22.36;48.43;95897.50;1044280;28;853;-59
2021/09/26 00:41:07;;;;;;;;;;;;;;;22.36;48.20;95894.88;1040217;28;1105;-58
2021/09/26 00:41:37;;;;;;;;;;;;;;;22.35;48.15;95891.44;1038296;28;1883;-59
2021/09/26 00:42:07;;;;;;;;;;;;;;;22.37;48.20;95899.84;1038243;28;2168;-60
2021/09/26 00:42:38;;;;;;;;;;;;;;;22.37;48.37;95891.13;1044065;28;769;-58
2021/09/26 00:43:08;;;;;;;;;;;;;;;22.36;48.42;95885.06;1048131;28;1069;-59
2021/09/26 00:43:39;;;;;;;;;;;;;;;22.35;48.43;95888.00;1044290;28;1440;-59
2021/09/26 00:44:09;;;;;;;;;;;;;;;22.36;48.28;95897.50;1044300;28;1190;-60
2021/09/26 00:44:39;;;;;;;;;;;;;;;22.35;48.48;95891.44;1044215;28;709;-59
2021/09/26 00:45:09;;;;;;;;;;;;;;;22.34;48.42;95887.19;1043938;28;1230;-59
2021/09/26 00:45:40;;;;;;;;;;;;;;;22.34;48.22;95895.13;1043970;28;1226;-60
2021/09/26 00:46:10;;;;;;;;;;;;;;;22.34;48.23;95891.72;1044374;28;1143;-60
2021/09/26 00:46:41;;;;;;;;;;;;;;;22.33;48.44;95885.66;1043021;28;2447;-59
2021/09/26 00:47:11;;;;;;;;;;;;;;;22.34;48.32;95886.44;1044264;28;1494;-60
2021/09/26 00:47:42;;;;;;;;;;;;;;;22.33;48.22;95888.28;1042393;28;1681;-60
2021/09/26 00:48:12;;;;;;;;;;;;;;;22.34;48.28;95894.34;1043938;28;1167;-59
2021/09/26 00:48:43;;;;;;;;;;;;;;;22.33;48.57;95883.00;1044265;28;1010;-58
2021/09/26 00:49:14;;;;;;;;;;;;;;;22.34;48.37;95887.19;1044544;28;1023;-60
2021/09/26 00:49:45;;;;;;;;;;;;;;;22.33;48.75;95885.66;1044159;28;994;-59
2021/09/26 00:50:15;;;;;;;;;;;;;;;22.33;48.29;95885.66;1044543;28;1096;-62
2021/09/26 00:50:46;;;;;;;;;;;;;;;22.34;48.43;95881.16;1043420;28;1809;-59
2021/09/26 00:51:19;;;;;;;;;;;;;;;22.34;48.50;95883.78;1044400;28;1060;-60
2021/09/26 00:51:50;;;;;;;;;;;;;;;22.33;48.49;95876.94;1041807;28;2249;-60
2021/09/26 00:52:20;;;;;;;;;;;;;;;22.32;48.38;95870.84;1044465;28;1222;-60
2021/09/26 00:52:50;;;;;;;;;;;;;;;22.34;48.43;95875.88;1048004;28;989;-60
2021/09/26 00:53:21;;;;;;;;;;;;;;;22.32;48.65;95873.50;1044043;28;1175;-57
2021/09/26 00:53:51;;;;;;;;;;;;;;;22.33;48.45;95872.44;1044017;28;1014;-59
2021/09/26 00:54:21;;;;;;;;;;;;;;;22.34;48.49;95879.28;1043607;28;1167;-60
2021/09/26 00:54:52;;;;;;;;;;;;;;;22.34;48.29;95878.50;1044115;28;1030;-59
2021/09/26 00:55:22;;;;;;;;;;;;;;;22.34;48.73;95871.34;1044581;28;1135;-59
2021/09/26 00:55:59;;;;;;;;;;;;;;;22.34;48.28;95875.88;1043939;28;1014;-58
2021/09/26 00:56:30;;;;;;;;;;;;;;;22.34;48.42;95871.34;1043255;28;1980;-58
2021/09/26 00:57:01;;;;;;;;;;;;;;;22.33;48.71;95872.44;1043075;28;1748;-58
2021/09/26 00:57:32;;;;;;;;;;;;;;;22.33;48.52;95872.44;1045259;28;717;-60
2021/09/26 00:58:02;;;;;;;;;;;;;;;22.34;48.47;95873.22;1043538;28;1174;-60
2021/09/26 00:58:32;;;;;;;;;;;;;;;22.34;48.43;95879.28;1044134;28;1179;-58
2021/09/26 00:59:03;;;;;;;;;;;;;;;22.33;48.54;95875.06;1044212;28;1089;-60
2021/09/26 00:59:33;;;;;;;;;;;;;;;22.33;48.63;95872.44;1043284;28;1785;-60
2021/09/26 01:00:04;;;;;;;;;;;;;;;22.34;48.30;95873.22;1043999;28;1064;-60
2021/09/26 01:00:35;;;;;;;;;;;;;;;22.33;48.65;95872.44;1044604;28;1006;-58
2021/09/26 01:01:05;;;;;;;;;;;;;;;22.34;48.21;95871.34;1044501;28;1092;-59
2021/09/26 01:01:35;;;;;;;;;;;;;;;22.33;48.42;95872.44;1043452;28;2121;-59
2021/09/26 01:02:06;;;;;;;;;;;;;;;22.34;48.38;95876.63;1044015;28;1902;-59
2021/09/26 01:02:37;;;;;;;;;;;;;;;22.33;48.37;95872.44;1043609;28;831;-59
2021/09/26 01:03:07;;;;;;;;;;;;;;;22.33;48.40;95867.16;1043995;28;1194;-59
2021/09/26 01:03:38;;;;;;;;;;;;;;;22.34;48.64;95868.72;1044421;28;1110;-59
2021/09/26 01:04:08;;;;;;;;;;;;;;;22.33;48.50;95872.44;1044367;28;1096;-58
2021/09/26 01:04:38;;;;;;;;;;;;;;;22.34;48.64;95871.34;1044123;28;997;-58
2021/09/26 01:05:09;;;;;;;;;;;;;;;22.34;48.60;95871.34;1042757;28;1299;-60
2021/09/26 01:05:40;;;;;;;;;;;;;;;22.34;48.64;95870.59;1044330;28;1033;-60
2021/09/26 01:06:16;;;;;;;;;;;;;;;22.33;48.42;95877.72;1044070;28;1346;-60
2021/09/26 01:06:50;;;;;;;;;;;;;;;22.34;48.34;95874.00;1039222;28;2079;-60
2021/09/26 01:07:23;;;;;;;;;;;;;;;22.33;48.75;95872.44;1044263;28;1205;-60
2021/09/26 01:08:06;;;;;;;;;;;;;;;22.33;48.59;95869.78;1041301;28;1364;-60
2021/09/26 01:08:45;;;;;;;;;;;;;;;22.33;48.56;95872.44;1040743;28;2084;-57
2021/09/26 01:09:28;;;;;;;;;;;;;;;22.33;48.40;95876.94;1043143;28;1242;-60
2021/09/26 01:10:16;;;;;;;;;;;;;;;22.31;48.52;95871.94;1043909;28;1274;-59
2021/09/26 01:10:59;;;;;;;;;;;;;;;22.32;48.44;95870.06;1039013;28;2416;-60
2021/09/26 01:11:30;;;;;;;;;;;;;;;22.33;48.68;95883.00;1040307;28;1040;-59
2021/09/26 01:12:17;;;;;;;;;;;;;;;22.34;48.45;95878.50;1041253;28;2467;-58
2021/09/26 01:13:15;;;;;;;;;;;;;;;22.34;48.50;95879.28;1045435;28;1108;-59
2021/09/26 01:14:24;;;;;;;;;;;;;;;22.33;48.50;95877.72;1048081;28;1191;-59
2021/09/26 01:15:07;;;;;;;;;;;;;;;22.33;48.52;95874.28;1047968;28;1225;-60
2021/09/26 01:15:43;;;;;;;;;;;;;;;22.33;48.54;95890.94;1045833;28;1024;-59
2021/09/26 01:16:24;;;;;;;;;;;;;;;22.33;48.32;95883.00;1044542;28;1174;-59
2021/09/26 01:17:16;;;;;;;;;;;;;;;22.31;48.42;95882.50;1047143;28;2137;-58
2021/09/26 01:17:55;;;;;;;;;;;;;;;22.31;48.62;95882.50;1050946;28;1263;-60
2021/09/26 01:18:51;;;;;;;;;;;;;;;22.32;48.54;95884.06;1051573;28;1433;-60
2021/09/26 01:19:47;;;;;;;;;;;;;;;22.32;48.71;95886.69;1046449;28;1180;-60
2021/09/26 01:20:27;;;;;;;;;;;;;;;22.32;48.72;95881.41;1044665;28;879;-58
2021/09/26 01:21:10;;;;;;;;;;;;;;;22.32;48.69;95889.34;1044860;28;1066;-63
2021/09/26 01:21:59;;;;;;;;;;;;;;;22.33;48.63;95890.94;1040914;28;2189;-59
2021/09/26 01:22:42;;;;;;;;;;;;;;;22.33;48.53;95888.28;1040676;28;1222;-60
2021/09/26 01:23:35;;;;;;;;;;;;;;;22.34;48.71;95881.16;1042151;28;1096;-59
2021/09/26 01:24:34;;;;;;;;;;;;;;;22.34;48.70;95883.78;1044344;28;1188;-59
2021/09/26 01:25:07;;;;;;;;;;;;;;;22.33;48.61;95883.00;1045098;28;1053;-60
2021/09/26 01:25:57;;;;;;;;;;;;;;;22.34;48.60;95881.16;1045190;28;1117;-57
2021/09/26 01:26:44;;;;;;;;;;;;;;;22.34;48.81;95884.56;1044987;28;1275;-60
2021/09/26 01:27:20;;;;;;;;;;;;;;;22.34;48.60;95883.78;1045098;28;1197;-60
2021/09/26 01:28:14;;;;;;;;;;;;;;;22.34;48.46;95886.44;1044780;28;1079;-60
2021/09/26 01:28:48;;;;;;;;;;;;;;;22.34;48.54;95887.19;1041502;28;2315;-60
2021/09/26 01:29:22;;;;;;;;;;;;;;;22.34;48.57;95878.50;1047470;28;1175;-60
2021/09/26 01:30:05;;;;;;;;;;;;;;;22.33;48.83;95885.66;1046715;28;998;-60
2021/09/26 01:30:36;;;;;;;;;;;;;;;22.35;48.69;95893.28;1049067;28;1019;-60
2021/09/26 01:31:14;;;;;;;;;;;;;;;22.33;48.50;95888.28;1048961;28;1045;-59
2021/09/26 01:31:45;;;;;;;;;;;;;;;22.34;48.50;95876.63;1048994;28;1018;-59
2021/09/26 01:32:15;;;;;;;;;;;;;;;22.35;48.83;95888.00;1042569;28;1528;-60
2021/09/26 01:32:49;;;;;;;;;;;;;;;22.34;48.58;95889.84;1043647;28;1053;-60
2021/09/26 01:33:40;;;;;;;;;;;;;;;22.34;48.36;95881.91;1044087;28;1151;-60
2021/09/26 01:34:11;;;;;;;;;;;;;;;22.35;48.45;95888.00;1039957;28;2075;-60
2021/09/26 01:34:43;;;;;;;;;;;;;;;22.34;48.73;95894.34;1040026;28;1538;-59
2021/09/26 01:35:13;;;;;;;;;;;;;;;22.34;48.49;95889.06;1043966;28;1143;-60
2021/09/26 01:35:46;;;;;;;;;;;;;;;22.34;48.45;95894.34;1043543;28;2438;-60
2021/09/26 01:36:24;;;;;;;;;;;;;;;22.35;48.50;95896.72;1049406;28;1263;-58
2021/09/26 01:37:00;;;;;;;;;;;;;;;22.34;48.77;95889.84;1052007;28;1032;-60
2021/09/26 01:37:33;;;;;;;;;;;;;;;22.34;48.53;95889.84;1048725;28;1132;-59
2021/09/26 01:38:08;;;;;;;;;;;;;;;22.35;48.49;95888.78;1041604;28;1010;-60
2021/09/26 01:38:41;;;;;;;;;;;;;;;22.35;48.69;95894.06;1042705;28;975;-59
2021/09/26 01:39:11;;;;;;;;;;;;;;;22.36;48.92;95886.94;1040279;28;1242;-59
2021/09/26 01:39:43;;;;;;;;;;;;;;;22.35;48.55;95891.44;1041490;28;1152;-59
2021/09/26 01:40:16;;;;;;;;;;;;;;;22.35;48.42;95896.72;1040933;28;1163;-57
2021/09/26 01:40:56;;;;;;;;;;;;;;;22.35;48.76;95891.44;1036407;28;1305;-60
2021/09/26 01:41:46;;;;;;;;;;;;;;;22.35;48.45;95888.78;1040482;28;1163;-60
2021/09/26 01:42:17;;;;;;;;;;;;;;;22.35;48.46;95896.72;1043043;28;1859;-60
2021/09/26 01:42:48;;;;;;;;;;;;;;;22.35;48.49;95891.44;1048668;28;1178;-60
2021/09/26 01:43:19;;;;;;;;;;;;;;;22.36;48.48;95897.50;1044264;28;1503;-59
2021/09/26 01:43:50;;;;;;;;;;;;;;;22.34;48.59;95895.13;1043372;28;2156;-57
2021/09/26 01:44:31;;;;;;;;;;;;;;;22.34;48.75;95899.63;1047194;28;1112;-60
2021/09/26 01:45:04;;;;;;;;;;;;;;;22.34;48.62;95905.69;1046407;28;1065;-58
2021/09/26 01:45:36;;;;;;;;;;;;;;;22.35;48.69;95901.19;1044761;28;1056;-58
2021/09/26 01:46:08;;;;;;;;;;;;;;;22.34;48.47;95897.00;1038198;28;1328;-58
2021/09/26 01:46:39;;;;;;;;;;;;;;;22.34;48.56;95903.03;1033469;28;1275;-58
2021/09/26 01:47:10;;;;;;;;;;;;;;;22.34;48.84;95897.75;1041190;28;1185;-60
2021/09/26 01:47:44;;;;;;;;;;;;;;;22.34;48.54;95900.41;1044009;28;1052;-58
2021/09/26 01:48:18;;;;;;;;;;;;;;;22.33;48.73;95896.22;1043300;28;1140;-58
2021/09/26 01:48:52;;;;;;;;;;;;;;;22.35;48.48;95902.00;1046741;28;2005;-59
2021/09/26 01:49:24;;;;;;;;;;;;;;;22.35;48.45;95904.63;1047926;28;1174;-59
2021/09/26 01:49:56;;;;;;;;;;;;;;;22.34;48.52;95892.47;1050083;28;1046;-59
2021/09/26 01:50:26;;;;;;;;;;;;;;;22.34;48.53;95897.75;1048839;28;1150;-56
2021/09/26 01:50:57;;;;;;;;;;;;;;;22.33;48.70;95896.22;1048649;28;1029;-57
2021/09/26 01:51:28;;;;;;;;;;;;;;;22.34;48.70;95895.13;1040832;28;1175;-59
2021/09/26 01:51:58;;;;;;;;;;;;;;;22.33;48.50;95895.41;1040764;28;1129;-57
2021/09/26 01:52:30;;;;;;;;;;;;;;;22.33;48.79;95898.84;1043460;28;1540;-58
2021/09/26 01:53:00;;;;;;;;;;;;;;;22.32;48.52;95894.63;1044968;28;1296;-58
2021/09/26 01:53:30;;;;;;;;;;;;;;;22.33;48.67;95898.06;1044838;28;1225;-59
2021/09/26 01:54:01;;;;;;;;;;;;;;;22.32;48.65;95897.25;1042150;28;2105;-58
2021/09/26 01:54:31;;;;;;;;;;;;;;;22.34;48.65;95902.28;1043938;28;1340;-57
2021/09/26 01:55:02;;;;;;;;;;;;;;;22.33;48.59;95898.84;1040640;28;1356;-58
2021/09/26 01:55:33;;;;;;;;;;;;;;;22.35;48.79;95896.72;1044884;28;1026;-60
2021/09/26 01:56:04;;;;;;;;;;;;;;;22.34;48.92;95897.75;1041520;28;1025;-56
2021/09/26 01:56:35;;;;;;;;;;;;;;;22.34;48.57;95902.28;1036453;28;1221;-58
2021/09/26 01:57:05;;;;;;;;;;;;;;;22.33;48.54;95900.69;1040106;28;1034;-59
2021/09/26 01:57:37;;;;;;;;;;;;;;;22.34;48.65;95892.47;1044825;28;1036;-59
2021/09/26 01:58:08;;;;;;;;;;;;;;;22.34;48.61;95897.00;1051977;28;989;-60
2021/09/26 01:58:38;;;;;;;;;;;;;;;22.33;48.59;95896.22;1048438;28;875;-60
2021/09/26 01:59:09;;;;;;;;;;;;;;;22.34;48.85;95895.13;1045279;28;2226;-60
2021/09/26 01:59:40;;;;;;;;;;;;;;;22.33;48.50;95893.56;1043705;28;1424;-58
2021/09/26 02:00:11;;;;;;;;;;;;;;;22.34;48.50;95895.13;1046469;28;1206;-59
2021/09/26 02:00:41;;;;;;;;;;;;;;;22.35;48.69;95898.56;1045832;28;1788;-59
2021/09/26 02:01:12;;;;;;;;;;;;;;;22.35;48.63;95894.06;1046262;28;1218;-56
2021/09/26 02:01:43;;;;;;;;;;;;;;;22.35;48.43;95903.84;1043261;28;2513;-60
2021/09/26 02:02:15;;;;;;;;;;;;;;;22.35;48.81;95902.00;1039977;28;2301;-56
2021/09/26 02:02:47;;;;;;;;;;;;;;;22.34;48.65;95897.00;1048028;28;1041;-60
2021/09/26 02:03:18;;;;;;;;;;;;;;;22.34;48.84;95889.84;1051512;28;1139;-59
2021/09/26 02:03:49;;;;;;;;;;;;;;;22.34;48.57;95897.75;1052966;28;1020;-60
2021/09/26 02:04:20;;;;;;;;;;;;;;;22.35;48.71;95901.19;1051172;28;2106;-60
2021/09/26 02:04:51;;;;;;;;;;;;;;;22.34;48.66;95897.75;1050822;28;1397;-60
2021/09/26 02:05:21;;;;;;;;;;;;;;;22.35;48.64;95891.44;1053078;28;1162;-60
2021/09/26 02:05:51;;;;;;;;;;;;;;;22.35;48.64;95894.06;1053097;28;1033;-60
2021/09/26 02:06:22;;;;;;;;;;;;;;;22.35;48.73;95891.44;1048404;28;1407;-58
2021/09/26 02:06:52;;;;;;;;;;;;;;;22.35;48.89;95885.34;1042111;28;1061;-60
2021/09/26 02:07:23;;;;;;;;;;;;;;;22.35;48.70;95896.72;1044904;28;1163;-60
2021/09/26 02:07:53;;;;;;;;;;;;;;;22.34;48.73;95894.34;1040146;28;1274;-59
2021/09/26 02:08:23;;;;;;;;;;;;;;;22.34;48.73;95894.34;1040827;28;1203;-59
2021/09/26 02:08:54;;;;;;;;;;;;;;;22.35;48.59;95895.91;1044492;28;1053;-60
2021/09/26 02:09:24;;;;;;;;;;;;;;;22.35;48.67;95899.34;1043383;28;2019;-60
2021/09/26 02:09:54;;;;;;;;;;;;;;;22.34;48.62;95892.47;1048457;28;1358;-61
2021/09/26 02:10:25;;;;;;;;;;;;;;;22.35;48.77;95895.91;1044602;28;1767;-60
2021/09/26 02:10:55;;;;;;;;;;;;;;;22.34;48.89;95892.47;1044556;28;1057;-60
2021/09/26 02:11:26;;;;;;;;;;;;;;;22.35;48.98;95891.44;1044571;28;1187;-61
2021/09/26 02:11:56;;;;;;;;;;;;;;;22.37;48.92;95889.28;1040543;28;1105;-61
2021/09/26 02:12:26;;;;;;;;;;;;;;;22.35;48.85;95890.63;1044078;28;1953;-61
2021/09/26 02:12:57;;;;;;;;;;;;;;;22.35;48.79;95890.63;1044021;28;1356;-60
2021/09/26 02:13:27;;;;;;;;;;;;;;;22.34;48.88;95887.19;1044821;28;1151;-58
2021/09/26 02:13:57;;;;;;;;;;;;;;;22.35;48.60;95893.28;1040717;28;1109;-60
2021/09/26 02:14:28;;;;;;;;;;;;;;;22.34;48.67;95889.06;1039057;28;2096;-61
2021/09/26 02:14:58;;;;;;;;;;;;;;;22.35;49.05;95883.50;1039402;28;2063;-60
2021/09/26 02:15:28;;;;;;;;;;;;;;;22.35;48.64;95888.78;1040634;28;1020;-60
2021/09/26 02:15:59;;;;;;;;;;;;;;;22.34;48.92;95889.84;1044646;28;1081;-61
2021/09/26 02:16:29;;;;;;;;;;;;;;;22.34;48.64;95895.13;1040638;28;1288;-61
2021/09/26 02:17:00;;;;;;;;;;;;;;;22.34;48.62;95881.91;1048633;28;1139;-61
2021/09/26 02:17:30;;;;;;;;;;;;;;;22.35;49.05;95888.00;1040447;28;1407;-60
2021/09/26 02:18:01;;;;;;;;;;;;;;;22.35;48.77;95886.16;1039613;28;1093;-59
2021/09/26 02:18:31;;;;;;;;;;;;;;;22.36;49.09;95890.34;1036498;28;700;-61
2021/09/26 02:19:02;;;;;;;;;;;;;;;22.34;48.96;95887.19;1035515;28;1066;-61
2021/09/26 02:19:33;;;;;;;;;;;;;;;22.36;48.87;95889.59;1039191;28;2148;-61
2021/09/26 02:20:04;;;;;;;;;;;;;;;22.35;48.73;95894.06;1044117;28;2354;-61
2021/09/26 02:20:35;;;;;;;;;;;;;;;22.36;49.07;95889.59;1043947;28;1436;-61
2021/09/26 02:21:05;;;;;;;;;;;;;;;22.38;48.83;95890.09;1045072;28;1037;-61
2021/09/26 02:21:36;;;;;;;;;;;;;;;22.35;48.86;95888.78;1044571;28;1080;-61
2021/09/26 02:22:06;;;;;;;;;;;;;;;22.36;48.80;95892.97;1040245;28;1898;-61
2021/09/26 02:22:36;;;;;;;;;;;;;;;22.35;48.74;95891.44;1040252;28;1151;-59
2021/09/26 02:23:07;;;;;;;;;;;;;;;22.35;48.92;95895.91;1036641;28;1552;-60
2021/09/26 02:23:37;;;;;;;;;;;;;;;22.35;48.70;95893.28;1034406;28;2420;-61
2021/09/26 02:24:07;;;;;;;;;;;;;;;22.35;49.07;95890.63;1036570;28;1440;-61
2021/09/26 02:24:38;;;;;;;;;;;;;;;22.36;48.91;95897.50;1041495;28;2400;-61
2021/09/26 02:25:08;;;;;;;;;;;;;;;22.36;48.83;95897.50;1044685;28;1171;-61
2021/09/26 02:25:39;;;;;;;;;;;;;;;22.35;48.94;95896.72;1044569;28;1531;-61
2021/09/26 02:26:10;;;;;;;;;;;;;;;22.35;48.98;95896.72;1040325;28;1217;-61
2021/09/26 02:26:40;;;;;;;;;;;;;;;22.37;48.77;95905.13;1044640;28;1347;-61
2021/09/26 02:27:11;;;;;;;;;;;;;;;22.35;49.09;95890.63;1044925;28;1139;-61
2021/09/26 02:27:41;;;;;;;;;;;;;;;22.35;49.05;95902.00;1045948;28;1182;-61
2021/09/26 02:28:12;;;;;;;;;;;;;;;22.35;48.79;95894.06;1048713;28;1142;-60
2021/09/26 02:28:42;;;;;;;;;;;;;;;22.35;49.12;95891.44;1044811;28;1054;-60
2021/09/26 02:29:12;;;;;;;;;;;;;;;22.36;48.91;95892.22;1044646;28;1127;-61
2021/09/26 02:29:43;;;;;;;;;;;;;;;22.36;48.97;95895.63;1042338;28;1995;-61
2021/09/26 02:30:13;;;;;;;;;;;;;;;22.35;48.66;95890.63;1044047;28;1396;-61
2021/09/26 02:30:44;;;;;;;;;;;;;;;22.36;48.91;95884.31;1037534;28;1002;-61
2021/09/26 02:31:14;;;;;;;;;;;;;;;22.37;49.14;95888.50;1040596;28;1155;-61
2021/09/26 02:31:44;;;;;;;;;;;;;;;22.35;49.05;95886.16;1044339;28;975;-61
2021/09/26 02:32:15;;;;;;;;;;;;;;;22.36;48.94;95884.31;1044662;28;1197;-61
2021/09/26 02:32:45;;;;;;;;;;;;;;;22.35;48.94;95875.59;1043742;28;1124;-58
2021/09/26 02:33:16;;;;;;;;;;;;;;;22.35;49.16;95886.16;1044929;28;1296;-61
2021/09/26 02:33:46;;;;;;;;;;;;;;;22.35;48.95;95886.16;1044840;28;1072;-61
2021/09/26 02:34:16;;;;;;;;;;;;;;;22.36;49.14;95885.06;1044634;28;1142;-61
2021/09/26 02:34:47;;;;;;;;;;;;;;;22.36;49.01;95882.41;1042665;28;2151;-60
2021/09/26 02:35:17;;;;;;;;;;;;;;;22.36;49.00;95881.66;1045094;28;1155;-61
2021/09/26 02:35:47;;;;;;;;;;;;;;;22.36;49.14;95885.06;1044839;28;1115;-59
2021/09/26 02:36:19;;;;;;;;;;;;;;;22.35;48.81;95891.44;1045816;28;1278;-61
2021/09/26 02:36:49;;;;;;;;;;;;;;;22.35;49.08;95880.06;1047877;28;1125;-61
2021/09/26 02:37:20;;;;;;;;;;;;;;;22.36;48.83;95887.69;1044971;28;1229;-61
2021/09/26 02:37:50;;;;;;;;;;;;;;;22.35;48.86;95883.50;1044429;28;1158;-61
2021/09/26 02:38:20;;;;;;;;;;;;;;;22.34;49.00;95884.56;1044970;28;1135;-61
2021/09/26 02:38:51;;;;;;;;;;;;;;;22.35;49.01;95890.63;1044736;28;1284;-60
2021/09/26 02:39:21;;;;;;;;;;;;;;;22.35;49.07;95886.16;1044706;28;1199;-61
2021/09/26 02:39:52;;;;;;;;;;;;;;;22.35;48.94;95883.50;1043240;28;2173;-60
2021/09/26 02:40:22;;;;;;;;;;;;;;;22.35;49.13;95880.06;1044425;28;1375;-61
2021/09/26 02:40:54;;;;;;;;;;;;;;;22.35;48.87;95883.50;1044636;28;1265;-61
2021/09/26 02:41:25;;;;;;;;;;;;;;;22.35;48.86;95883.50;1040800;28;1202;-61
2021/09/26 02:42:07;;;;;;;;;;;;;;;22.36;49.02;95886.94;1044483;28;1902;-60
2021/09/26 02:42:40;;;;;;;;;;;;;;;22.35;48.95;95885.34;1041020;28;1505;-59
2021/09/26 02:43:19;;;;;;;;;;;;;;;22.36;48.81;95889.59;1045460;28;1136;-60
2021/09/26 02:43:53;;;;;;;;;;;;;;;22.35;49.19;95886.16;1046072;28;1022;-61
2021/09/26 02:44:27;;;;;;;;;;;;;;;22.35;49.00;95882.72;1046054;28;1119;-61
2021/09/26 02:44:57;;;;;;;;;;;;;;;22.35;49.17;95891.44;1042839;28;2440;-61
2021/09/26 02:45:37;;;;;;;;;;;;;;;22.34;48.98;95884.56;1044781;28;1171;-60
2021/09/26 02:46:16;;;;;;;;;;;;;;;22.35;49.01;95891.44;1044574;28;1097;-61
2021/09/26 02:46:47;;;;;;;;;;;;;;;22.35;49.29;95888.78;1042178;28;1198;-59
2021/09/26 02:47:18;;;;;;;;;;;;;;;22.35;49.17;95883.50;1045130;28;1162;-61
2021/09/26 02:47:50;;;;;;;;;;;;;;;22.35;49.10;95886.16;1043159;28;1648;-61
2021/09/26 02:48:26;;;;;;;;;;;;;;;22.35;49.20;95891.44;1048508;28;1178;-61
2021/09/26 02:48:57;;;;;;;;;;;;;;;22.35;49.01;95886.16;1043094;28;1159;-59
2021/09/26 02:49:27;;;;;;;;;;;;;;;22.35;49.23;95885.34;1041144;28;1241;-60
2021/09/26 02:49:57;;;;;;;;;;;;;;;22.36;48.91;95884.31;1040954;28;2119;-58
2021/09/26 02:50:28;;;;;;;;;;;;;;;22.35;49.21;95875.59;1039977;28;1231;-61
2021/09/26 02:50:58;;;;;;;;;;;;;;;22.35;49.30;95880.06;1044203;28;1342;-61
2021/09/26 02:51:28;;;;;;;;;;;;;;;22.35;49.17;95880.88;1043063;28;982;-61
2021/09/26 02:51:59;;;;;;;;;;;;;;;22.35;48.94;95880.06;1044907;28;1173;-61